Terminal Aerodrome Forecast
Issued by NWS Sioux Falls, SD

Home | Current Version | Previous Version | Graphics & Text | Print | Product List | Glossary Off
Versions: 1 2 3 4 5 6 7 8 9 10 11 12

000
FTUS43 KFSD 071120
TAFHON
TAF
KHON 071120Z 0712/0812 30015KT P6SM SKC
     FM071400 30016G26KT P6SM FEW200
     FM071600 30018G28KT P6SM BKN070=

USA.gov is the U.S. government's official web portal to all federal, state and local government web resources and services.